sensor_id;sensor_type;location;lat;lon;timestamp;pressure;altitude;pressure_sealevel;temperature;humidity
36284;BME280;56085;48.910;9.478;2022-11-23T00:01:19;96847.59;;;4.09;76.01
36284;BME280;56085;48.910;9.478;2022-11-23T00:03:47;96848.31;;;4.06;76.03
36284;BME280;56085;48.910;9.478;2022-11-23T00:06:13;96846.28;;;4.02;76.16
36284;BME280;56085;48.910;9.478;2022-11-23T00:08:38;96846.94;;;3.96;75.81
36284;BME280;56085;48.910;9.478;2022-11-23T00:11:04;96856.28;;;3.95;76.29
36284;BME280;56085;48.910;9.478;2022-11-23T00:13:29;96851.06;;;3.90;76.08
36284;BME280;56085;48.910;9.478;2022-11-23T00:15:55;96851.16;;;3.77;76.45
36284;BME280;56085;48.910;9.478;2022-11-23T00:18:20;96852.91;;;3.70;75.82
36284;BME280;56085;48.910;9.478;2022-11-23T00:20:45;96853.16;;;3.64;76.20
36284;BME280;56085;48.910;9.478;2022-11-23T00:23:10;96857.53;;;3.53;76.28
36284;BME280;56085;48.910;9.478;2022-11-23T00:25:36;96846.69;;;3.41;76.28
36284;BME280;56085;48.910;9.478;2022-11-23T00:28:01;96850.56;;;3.40;76.41
36284;BME280;56085;48.910;9.478;2022-11-23T00:30:27;96853.91;;;3.33;76.61
36284;BME280;56085;48.910;9.478;2022-11-23T00:32:53;96861.56;;;3.27;76.78
36284;BME280;56085;48.910;9.478;2022-11-23T00:35:19;96857.81;;;3.20;76.73
36284;BME280;56085;48.910;9.478;2022-11-23T00:37:45;96866.00;;;3.20;77.22
36284;BME280;56085;48.910;9.478;2022-11-23T00:40:10;96873.13;;;3.08;76.88
36284;BME280;56085;48.910;9.478;2022-11-23T00:42:36;96875.38;;;3.06;77.17
36284;BME280;56085;48.910;9.478;2022-11-23T00:45:01;96861.66;;;3.03;77.12
36284;BME280;56085;48.910;9.478;2022-11-23T00:47:26;96874.41;;;2.99;77.16
36284;BME280;56085;48.910;9.478;2022-11-23T00:49:52;96872.59;;;2.90;77.20
36284;BME280;56085;48.910;9.478;2022-11-23T00:52:17;96873.50;;;2.94;77.07
36284;BME280;56085;48.910;9.478;2022-11-23T00:54:42;96874.31;;;2.95;77.41
36284;BME280;56085;48.910;9.478;2022-11-23T00:57:07;96879.16;;;3.02;77.50
36284;BME280;56085;48.910;9.478;2022-11-23T00:59:33;96886.09;;;2.99;77.59
36284;BME280;56085;48.910;9.478;2022-11-23T01:01:58;96877.13;;;2.99;77.66
36284;BME280;56085;48.910;9.478;2022-11-23T01:04:23;96869.63;;;2.95;77.53
36284;BME280;56085;48.910;9.478;2022-11-23T01:06:54;96877.91;;;2.99;77.91
36284;BME280;56085;48.910;9.478;2022-11-23T01:09:19;96874.94;;;3.04;78.41
36284;BME280;56085;48.910;9.478;2022-11-23T01:11:49;96877.06;;;3.11;78.00
36284;BME280;56085;48.910;9.478;2022-11-23T01:14:15;96885.72;;;3.13;78.22
36284;BME280;56085;48.910;9.478;2022-11-23T01:16:42;96881.88;;;3.14;77.92
36284;BME280;56085;48.910;9.478;2022-11-23T01:19:10;96880.81;;;3.19;78.18
36284;BME280;56085;48.910;9.478;2022-11-23T01:21:36;96878.53;;;3.21;78.50
36284;BME280;56085;48.910;9.478;2022-11-23T01:24:06;96879.44;;;3.25;78.22
36284;BME280;56085;48.910;9.478;2022-11-23T01:26:32;96879.63;;;3.32;78.57
36284;BME280;56085;48.910;9.478;2022-11-23T01:28:58;96877.31;;;3.34;78.26
36284;BME280;56085;48.910;9.478;2022-11-23T01:31:24;96874.72;;;3.38;78.45
36284;BME280;56085;48.910;9.478;2022-11-23T01:33:54;96871.97;;;3.38;78.93
36284;BME280;56085;48.910;9.478;2022-11-23T01:36:22;96886.88;;;3.40;79.09
36284;BME280;56085;48.910;9.478;2022-11-23T01:38:48;96878.69;;;3.40;78.67
36284;BME280;56085;48.910;9.478;2022-11-23T01:41:17;96877.53;;;3.41;78.66
36284;BME280;56085;48.910;9.478;2022-11-23T01:43:43;96881.94;;;3.46;78.80
36284;BME280;56085;48.910;9.478;2022-11-23T01:46:08;96888.66;;;3.48;79.21
36284;BME280;56085;48.910;9.478;2022-11-23T01:48:41;96884.31;;;3.47;78.84
36284;BME280;56085;48.910;9.478;2022-11-23T01:51:15;96880.44;;;3.48;79.29
36284;BME280;56085;48.910;9.478;2022-11-23T01:53:43;96886.47;;;3.54;79.30
36284;BME280;56085;48.910;9.478;2022-11-23T01:56:14;96878.63;;;3.53;79.04
36284;BME280;56085;48.910;9.478;2022-11-23T01:58:43;96881.44;;;3.56;79.20
36284;BME280;56085;48.910;9.478;2022-11-23T02:01:10;96891.00;;;3.62;79.52
36284;BME280;56085;48.910;9.478;2022-11-23T02:03:36;96888.69;;;3.64;79.68
36284;BME280;56085;48.910;9.478;2022-11-23T02:06:03;96891.06;;;3.66;79.49
36284;BME280;56085;48.910;9.478;2022-11-23T02:08:31;96892.31;;;3.69;79.16
36284;BME280;56085;48.910;9.478;2022-11-23T02:10:57;96891.44;;;3.64;79.03
36284;BME280;56085;48.910;9.478;2022-11-23T02:13:24;96895.63;;;3.62;79.68
36284;BME280;56085;48.910;9.478;2022-11-23T02:15:50;96892.47;;;3.60;79.79
36284;BME280;56085;48.910;9.478;2022-11-23T02:18:21;96895.09;;;3.56;79.90
36284;BME280;56085;48.910;9.478;2022-11-23T02:20:47;96894.66;;;3.54;79.65
36284;BME280;56085;48.910;9.478;2022-11-23T02:26:10;96901.72;;;3.55;79.91
36284;BME280;56085;48.910;9.478;2022-11-23T02:28:43;96904.47;;;3.55;79.94
36284;BME280;56085;48.910;9.478;2022-11-23T02:31:10;96908.09;;;3.59;80.07
36284;BME280;56085;48.910;9.478;2022-11-23T02:33:39;96911.59;;;3.60;79.57
36284;BME280;56085;48.910;9.478;2022-11-23T02:38:48;96915.88;;;3.73;80.22
36284;BME280;56085;48.910;9.478;2022-11-23T02:41:14;96904.56;;;3.75;79.91
36284;BME280;56085;48.910;9.478;2022-11-23T02:43:39;96902.19;;;3.73;80.62
36284;BME280;56085;48.910;9.478;2022-11-23T02:46:05;96918.06;;;3.67;80.09
36284;BME280;56085;48.910;9.478;2022-11-23T02:48:30;96907.47;;;3.66;80.05
36284;BME280;56085;48.910;9.478;2022-11-23T02:50:55;96899.78;;;3.56;80.17
36284;BME280;56085;48.910;9.478;2022-11-23T02:53:21;96897.41;;;3.54;80.50
36284;BME280;56085;48.910;9.478;2022-11-23T02:55:46;96893.41;;;3.52;80.58
36284;BME280;56085;48.910;9.478;2022-11-23T02:58:12;96899.22;;;3.50;80.12
36284;BME280;56085;48.910;9.478;2022-11-23T03:00:37;96894.66;;;3.54;80.65
36284;BME280;56085;48.910;9.478;2022-11-23T03:03:03;96907.28;;;3.59;80.66
36284;BME280;56085;48.910;9.478;2022-11-23T03:05:28;96906.94;;;3.60;80.20
36284;BME280;56085;48.910;9.478;2022-11-23T03:07:53;96906.69;;;3.65;79.94
36284;BME280;56085;48.910;9.478;2022-11-23T03:10:19;96904.50;;;3.71;80.76
36284;BME280;56085;48.910;9.478;2022-11-23T03:12:44;96904.22;;;3.76;80.23
36284;BME280;56085;48.910;9.478;2022-11-23T03:15:10;96900.91;;;3.83;80.64
36284;BME280;56085;48.910;9.478;2022-11-23T03:17:35;96904.88;;;3.86;80.77
36284;BME280;56085;48.910;9.478;2022-11-23T03:20:01;96902.22;;;3.89;80.70
36284;BME280;56085;48.910;9.478;2022-11-23T03:22:26;96905.38;;;3.91;80.60
36284;BME280;56085;48.910;9.478;2022-11-23T03:24:52;96907.69;;;3.89;80.82
36284;BME280;56085;48.910;9.478;2022-11-23T03:27:17;96915.09;;;3.89;80.62
36284;BME280;56085;48.910;9.478;2022-11-23T03:29:43;96908.75;;;3.84;80.79
36284;BME280;56085;48.910;9.478;2022-11-23T03:32:08;96919.34;;;3.86;80.74
36284;BME280;56085;48.910;9.478;2022-11-23T03:34:33;96911.13;;;3.86;81.24
36284;BME280;56085;48.910;9.478;2022-11-23T03:36:59;96916.59;;;3.86;80.64
36284;BME280;56085;48.910;9.478;2022-11-23T03:39:24;96910.44;;;3.89;80.71
36284;BME280;56085;48.910;9.478;2022-11-23T03:41:49;96910.19;;;3.94;80.94
36284;BME280;56085;48.910;9.478;2022-11-23T03:44:15;96902.66;;;3.91;80.66
36284;BME280;56085;48.910;9.478;2022-11-23T03:46:40;96904.16;;;3.89;81.13
36284;BME280;56085;48.910;9.478;2022-11-23T03:49:05;96906.91;;;3.89;81.13
36284;BME280;56085;48.910;9.478;2022-11-23T03:51:30;96908.03;;;3.88;80.77
36284;BME280;56085;48.910;9.478;2022-11-23T03:53:56;96905.03;;;3.93;80.52
36284;BME280;56085;48.910;9.478;2022-11-23T03:56:21;96905.38;;;3.91;81.13
36284;BME280;56085;48.910;9.478;2022-11-23T03:58:46;96900.03;;;3.95;81.10
36284;BME280;56085;48.910;9.478;2022-11-23T04:01:12;96902.75;;;3.95;81.36
36284;BME280;56085;48.910;9.478;2022-11-23T04:03:37;96892.72;;;3.99;80.99
36284;BME280;56085;48.910;9.478;2022-11-23T04:06:02;96898.19;;;3.99;81.20
36284;BME280;56085;48.910;9.478;2022-11-23T04:08:28;96888.81;;;4.00;81.29
36284;BME280;56085;48.910;9.478;2022-11-23T04:10:56;96891.19;;;4.01;80.72
36284;BME280;56085;48.910;9.478;2022-11-23T04:13:22;96886.53;;;4.02;80.67
36284;BME280;56085;48.910;9.478;2022-11-23T04:15:47;96887.31;;;4.02;81.22
36284;BME280;56085;48.910;9.478;2022-11-23T04:18:12;96888.13;;;4.03;81.21
36284;BME280;56085;48.910;9.478;2022-11-23T04:20:38;96886.53;;;4.02;80.95
36284;BME280;56085;48.910;9.478;2022-11-23T04:23:03;96882.31;;;4.05;81.17
36284;BME280;56085;48.910;9.478;2022-11-23T04:25:28;96890.50;;;4.05;80.89
36284;BME280;56085;48.910;9.478;2022-11-23T04:27:53;96893.69;;;4.07;81.34
36284;BME280;56085;48.910;9.478;2022-11-23T04:30:19;96887.97;;;4.12;80.89
36284;BME280;56085;48.910;9.478;2022-11-23T04:32:44;96889.53;;;4.13;81.38
36284;BME280;56085;48.910;9.478;2022-11-23T04:35:10;96891.47;;;4.12;81.44
36284;BME280;56085;48.910;9.478;2022-11-23T04:37:35;96890.34;;;4.13;81.24
36284;BME280;56085;48.910;9.478;2022-11-23T04:40:00;96883.34;;;4.16;80.89
36284;BME280;56085;48.910;9.478;2022-11-23T04:42:26;96883.44;;;4.19;80.85
36284;BME280;56085;48.910;9.478;2022-11-23T04:44:51;96886.59;;;4.22;81.17
36284;BME280;56085;48.910;9.478;2022-11-23T04:47:16;96889.81;;;4.24;81.26
36284;BME280;56085;48.910;9.478;2022-11-23T04:49:42;96889.44;;;4.25;81.53
36284;BME280;56085;48.910;9.478;2022-11-23T04:52:07;96894.56;;;4.27;80.91
36284;BME280;56085;48.910;9.478;2022-11-23T04:54:32;96895.69;;;4.26;81.14
36284;BME280;56085;48.910;9.478;2022-11-23T04:56:58;96897.72;;;4.29;81.78
36284;BME280;56085;48.910;9.478;2022-11-23T04:59:23;96893.06;;;4.29;81.23
36284;BME280;56085;48.910;9.478;2022-11-23T05:01:49;96889.97;;;4.31;81.22
36284;BME280;56085;48.910;9.478;2022-11-23T05:04:17;96882.56;;;4.31;81.19
36284;BME280;56085;48.910;9.478;2022-11-23T05:06:42;96874.69;;;4.30;81.29
36284;BME280;56085;48.910;9.478;2022-11-23T05:09:07;96871.97;;;4.30;80.94
36284;BME280;56085;48.910;9.478;2022-11-23T05:11:33;96876.28;;;4.31;81.30
36284;BME280;56085;48.910;9.478;2022-11-23T05:13:58;96869.59;;;4.28;80.78
36284;BME280;56085;48.910;9.478;2022-11-23T05:16:23;96881.78;;;4.31;81.08
36284;BME280;56085;48.910;9.478;2022-11-23T05:18:48;96877.50;;;4.33;81.07
36284;BME280;56085;48.910;9.478;2022-11-23T05:21:14;96879.47;;;4.33;81.32
36284;BME280;56085;48.910;9.478;2022-11-23T05:23:39;96872.38;;;4.32;81.24
36284;BME280;56085;48.910;9.478;2022-11-23T05:26:04;96877.88;;;4.32;81.28
36284;BME280;56085;48.910;9.478;2022-11-23T05:28:30;96877.44;;;4.30;81.23
36284;BME280;56085;48.910;9.478;2022-11-23T05:30:55;96873.19;;;4.32;81.22
36284;BME280;56085;48.910;9.478;2022-11-23T05:33:20;96870.09;;;4.34;81.55
36284;BME280;56085;48.910;9.478;2022-11-23T05:35:46;96872.03;;;4.33;80.80
36284;BME280;56085;48.910;9.478;2022-11-23T05:38:11;96871.25;;;4.33;81.28
36284;BME280;56085;48.910;9.478;2022-11-23T05:40:36;96863.41;;;4.31;81.36
36284;BME280;56085;48.910;9.478;2022-11-23T05:43:03;96868.50;;;4.33;81.48
36284;BME280;56085;48.910;9.478;2022-11-23T05:45:28;96872.38;;;4.32;81.67
36284;BME280;56085;48.910;9.478;2022-11-23T05:47:57;96860.56;;;4.28;81.78
36284;BME280;56085;48.910;9.478;2022-11-23T05:50:25;96868.63;;;4.21;81.03
36284;BME280;56085;48.910;9.478;2022-11-23T05:52:51;96872.84;;;4.18;81.24
36284;BME280;56085;48.910;9.478;2022-11-23T05:55:16;96860.31;;;4.17;81.35
36284;BME280;56085;48.910;9.478;2022-11-23T05:57:42;96868.09;;;4.15;81.52
36284;BME280;56085;48.910;9.478;2022-11-23T06:00:08;96859.06;;;4.14;81.30
36284;BME280;56085;48.910;9.478;2022-11-23T06:02:37;96862.16;;;4.13;81.28
36284;BME280;56085;48.910;9.478;2022-11-23T06:05:03;96864.84;;;4.09;81.13
36284;BME280;56085;48.910;9.478;2022-11-23T06:07:31;96859.72;;;4.08;81.18
36284;BME280;56085;48.910;9.478;2022-11-23T06:09:56;96861.63;;;4.07;81.24
36284;BME280;56085;48.910;9.478;2022-11-23T06:12:22;96861.63;;;4.07;81.45
36284;BME280;56085;48.910;9.478;2022-11-23T06:14:47;96863.50;;;4.03;81.03
36284;BME280;56085;48.910;9.478;2022-11-23T06:17:12;96865.00;;;4.00;80.85
36284;BME280;56085;48.910;9.478;2022-11-23T06:19:38;96873.09;;;3.97;81.06
36284;BME280;56085;48.910;9.478;2022-11-23T06:22:03;96862.44;;;3.92;80.76
36284;BME280;56085;48.910;9.478;2022-11-23T06:24:28;96863.75;;;3.82;80.85
36284;BME280;56085;48.910;9.478;2022-11-23T06:26:54;96867.91;;;3.76;81.15
36284;BME280;56085;48.910;9.478;2022-11-23T06:29:19;96865.34;;;3.67;81.30
36284;BME280;56085;48.910;9.478;2022-11-23T06:31:45;96862.84;;;3.62;81.00
36284;BME280;56085;48.910;9.478;2022-11-23T06:34:10;96870.97;;;3.58;80.91
36284;BME280;56085;48.910;9.478;2022-11-23T06:36:36;96867.78;;;3.56;81.01
36284;BME280;56085;48.910;9.478;2022-11-23T06:39:02;96874.41;;;3.55;81.44
36284;BME280;56085;48.910;9.478;2022-11-23T06:41:27;96871.56;;;3.52;81.30
36284;BME280;56085;48.910;9.478;2022-11-23T06:43:53;96871.22;;;3.53;81.35
36284;BME280;56085;48.910;9.478;2022-11-23T06:46:18;96873.59;;;3.55;81.11
36284;BME280;56085;48.910;9.478;2022-11-23T06:48:44;96876.78;;;3.57;81.57
36284;BME280;56085;48.910;9.478;2022-11-23T06:51:10;96876.78;;;3.57;81.07
36284;BME280;56085;48.910;9.478;2022-11-23T06:53:36;96882.47;;;3.52;81.23
36284;BME280;56085;48.910;9.478;2022-11-23T06:56:02;96884.31;;;3.47;81.66
36284;BME280;56085;48.910;9.478;2022-11-23T06:58:27;96888.91;;;3.43;80.92
36284;BME280;56085;48.910;9.478;2022-11-23T07:00:53;96884.03;;;3.37;81.09
36284;BME280;56085;48.910;9.478;2022-11-23T07:03:20;96894.91;;;3.21;81.33
36284;BME280;56085;48.910;9.478;2022-11-23T07:05:46;96902.91;;;3.13;81.30
36284;BME280;56085;48.910;9.478;2022-11-23T07:08:11;96893.47;;;3.11;81.30
36284;BME280;56085;48.910;9.478;2022-11-23T07:10:37;96908.63;;;3.08;81.21
36284;BME280;56085;48.910;9.478;2022-11-23T07:13:06;96905.06;;;3.08;81.49
36284;BME280;56085;48.910;9.478;2022-11-23T07:15:32;96910.66;;;3.11;81.43
36284;BME280;56085;48.910;9.478;2022-11-23T07:17:57;96912.22;;;3.12;81.58
36284;BME280;56085;48.910;9.478;2022-11-23T07:20:23;96914.53;;;3.10;81.57
36284;BME280;56085;48.910;9.478;2022-11-23T07:22:58;96916.00;;;3.08;81.68
36284;BME280;56085;48.910;9.478;2022-11-23T07:25:24;96916.69;;;3.05;81.64
36284;BME280;56085;48.910;9.478;2022-11-23T07:27:54;96918.88;;;2.99;81.90
36284;BME280;56085;48.910;9.478;2022-11-23T07:30:20;96928.56;;;2.96;81.62
36284;BME280;56085;48.910;9.478;2022-11-23T07:32:45;96924.25;;;2.95;81.79
36284;BME280;56085;48.910;9.478;2022-11-23T07:35:11;96919.69;;;3.00;81.74
36284;BME280;56085;48.910;9.478;2022-11-23T07:37:36;96924.09;;;3.04;81.61
36284;BME280;56085;48.910;9.478;2022-11-23T07:40:02;96921.66;;;3.15;82.00
36284;BME280;56085;48.910;9.478;2022-11-23T07:42:28;96911.41;;;3.24;81.87
36284;BME280;56085;48.910;9.478;2022-11-23T07:44:53;96912.63;;;3.39;82.17
36284;BME280;56085;48.910;9.478;2022-11-23T07:47:18;96911.41;;;3.53;82.28
36284;BME280;56085;48.910;9.478;2022-11-23T07:49:43;96914.97;;;3.69;82.36
36284;BME280;56085;48.910;9.478;2022-11-23T07:52:09;96913.88;;;3.86;82.35
36284;BME280;56085;48.910;9.478;2022-11-23T07:54:34;96919.72;;;4.00;81.95
36284;BME280;56085;48.910;9.478;2022-11-23T07:56:59;96917.41;;;4.02;82.12
36284;BME280;56085;48.910;9.478;2022-11-23T07:59:25;96933.81;;;4.02;81.91
36284;BME280;56085;48.910;9.478;2022-11-23T08:01:50;96929.22;;;4.07;82.07
36284;BME280;56085;48.910;9.478;2022-11-23T08:04:15;96930.13;;;4.11;82.60
36284;BME280;56085;48.910;9.478;2022-11-23T08:06:40;96929.06;;;4.15;82.16
36284;BME280;56085;48.910;9.478;2022-11-23T08:09:06;96921.47;;;4.25;81.90
36284;BME280;56085;48.910;9.478;2022-11-23T08:11:31;96922.88;;;4.34;82.15
36284;BME280;56085;48.910;9.478;2022-11-23T08:13:56;96920.75;;;4.44;82.04
36284;BME280;56085;48.910;9.478;2022-11-23T08:16:22;96922.34;;;4.61;82.70
36284;BME280;56085;48.910;9.478;2022-11-23T08:18:47;96921.94;;;4.78;82.00
36284;BME280;56085;48.910;9.478;2022-11-23T08:21:15;96918.03;;;4.95;82.39
36284;BME280;56085;48.910;9.478;2022-11-23T08:23:40;96922.38;;;5.16;82.65
36284;BME280;56085;48.910;9.478;2022-11-23T08:26:05;96917.63;;;5.32;82.37
36284;BME280;56085;48.910;9.478;2022-11-23T08:28:31;96927.88;;;5.55;82.09
36284;BME280;56085;48.910;9.478;2022-11-23T08:30:57;96925.84;;;5.71;82.90
36284;BME280;56085;48.910;9.478;2022-11-23T08:33:22;96921.00;;;5.84;82.45
36284;BME280;56085;48.910;9.478;2022-11-23T08:35:47;96911.97;;;6.03;81.93
36284;BME280;56085;48.910;9.478;2022-11-23T08:38:13;96920.13;;;6.23;82.21
36284;BME280;56085;48.910;9.478;2022-11-23T08:40:38;96917.84;;;6.52;82.33
36284;BME280;56085;48.910;9.478;2022-11-23T08:43:04;96927.53;;;6.69;81.89
36284;BME280;56085;48.910;9.478;2022-11-23T08:45:30;96922.34;;;6.90;81.75
36284;BME280;56085;48.910;9.478;2022-11-23T08:47:59;96919.25;;;7.22;81.43
36284;BME280;56085;48.910;9.478;2022-11-23T08:50:25;96922.28;;;7.44;81.24
36284;BME280;56085;48.910;9.478;2022-11-23T08:52:58;96920.88;;;7.57;80.95
36284;BME280;56085;48.910;9.478;2022-11-23T08:55:25;96922.16;;;7.67;81.00
36284;BME280;56085;48.910;9.478;2022-11-23T08:57:57;96919.22;;;7.83;80.87
36284;BME280;56085;48.910;9.478;2022-11-23T09:00:23;96920.09;;;7.94;80.43
36284;BME280;56085;48.910;9.478;2022-11-23T09:02:48;96919.06;;;8.10;80.15
36284;BME280;56085;48.910;9.478;2022-11-23T09:05:14;96918.84;;;8.29;80.07
36284;BME280;56085;48.910;9.478;2022-11-23T09:07:39;96920.13;;;8.35;80.44
36284;BME280;56085;48.910;9.478;2022-11-23T09:10:05;96921.44;;;8.49;79.45
36284;BME280;56085;48.910;9.478;2022-11-23T09:12:31;96919.47;;;8.49;78.82
36284;BME280;56085;48.910;9.478;2022-11-23T09:14:57;96912.06;;;8.61;79.03
36284;BME280;56085;48.910;9.478;2022-11-23T09:17:22;96910.97;;;8.72;78.76
36284;BME280;56085;48.910;9.478;2022-11-23T09:19:48;96918.03;;;8.66;78.43
36284;BME280;56085;48.910;9.478;2022-11-23T09:22:14;96916.25;;;8.99;78.27
36284;BME280;56085;48.910;9.478;2022-11-23T09:24:39;96913.66;;;9.24;78.15
36284;BME280;56085;48.910;9.478;2022-11-23T09:27:04;96914.88;;;9.34;77.50
36284;BME280;56085;48.910;9.478;2022-11-23T09:29:30;96914.94;;;9.45;77.30
36284;BME280;56085;48.910;9.478;2022-11-23T09:31:55;96918.19;;;9.72;76.75
36284;BME280;56085;48.910;9.478;2022-11-23T09:34:20;96922.22;;;10.04;76.53
36284;BME280;56085;48.910;9.478;2022-11-23T09:36:47;96919.09;;;10.16;76.36
36284;BME280;56085;48.910;9.478;2022-11-23T09:39:12;96915.94;;;10.18;75.90
36284;BME280;56085;48.910;9.478;2022-11-23T09:45:01;96920.75;;;10.57;74.98
36284;BME280;56085;48.910;9.478;2022-11-23T09:50:48;96909.66;;;10.86;74.23
36284;BME280;56085;48.910;9.478;2022-11-23T09:53:24;96917.94;;;11.07;73.83
36284;BME280;56085;48.910;9.478;2022-11-23T09:55:55;96900.91;;;11.20;73.51
36284;BME280;56085;48.910;9.478;2022-11-23T09:58:22;96910.00;;;11.16;73.33
36284;BME280;56085;48.910;9.478;2022-11-23T10:00:59;96906.75;;;11.47;72.79
36284;BME280;56085;48.910;9.478;2022-11-23T10:03:26;96907.13;;;11.60;72.40
36284;BME280;56085;48.910;9.478;2022-11-23T10:06:15;96893.34;;;11.38;71.76
36284;BME280;56085;48.910;9.478;2022-11-23T10:22:21;96904.28;;;11.74;68.67
36284;BME280;56085;48.910;9.478;2022-11-23T10:24:58;96895.47;;;12.01;68.37
36284;BME280;56085;48.910;9.478;2022-11-23T10:27:28;96898.63;;;11.99;68.03
36284;BME280;56085;48.910;9.478;2022-11-23T10:29:53;96893.38;;;12.19;67.77
36284;BME280;56085;48.910;9.478;2022-11-23T10:32:40;96895.59;;;12.43;67.31
36284;BME280;56085;48.910;9.478;2022-11-23T10:35:17;96885.53;;;12.60;67.03
36284;BME280;56085;48.910;9.478;2022-11-23T10:37:47;96885.06;;;13.10;66.82
36284;BME280;56085;48.910;9.478;2022-11-23T10:40:24;96880.16;;;13.21;66.38
36284;BME280;56085;48.910;9.478;2022-11-23T10:42:54;96886.69;;;13.46;66.22
36284;BME280;56085;48.910;9.478;2022-11-23T10:45:23;96874.06;;;13.41;65.33
36284;BME280;56085;48.910;9.478;2022-11-23T10:47:54;96872.63;;;13.60;65.09
36284;BME280;56085;48.910;9.478;2022-11-23T10:50:36;96880.59;;;14.16;64.63
36284;BME280;56085;48.910;9.478;2022-11-23T10:55:52;96876.19;;;15.37;63.84
36284;BME280;56085;48.910;9.478;2022-11-23T10:58:41;96890.78;;;19.52;63.56
36284;BME280;56085;48.910;9.478;2022-11-23T11:01:13;96912.38;;;24.52;62.82
36284;BME280;56085;48.910;9.478;2022-11-23T11:03:39;96875.34;;;27.28;61.69
36284;BME280;56085;48.910;9.478;2022-11-23T11:06:05;96854.53;;;29.23;59.42
36284;BME280;56085;48.910;9.478;2022-11-23T11:08:33;96901.53;;;30.00;56.28
36284;BME280;56085;48.910;9.478;2022-11-23T11:11:07;96854.19;;;31.32;53.78
36284;BME280;56085;48.910;9.478;2022-11-23T11:13:47;96881.28;;;31.69;51.11
36284;BME280;56085;48.910;9.478;2022-11-23T11:18:50;96831.09;;;32.84;46.40
36284;BME280;56085;48.910;9.478;2022-11-23T11:21:26;96876.34;;;33.39;44.72
36284;BME280;56085;48.910;9.478;2022-11-23T11:24:03;96844.63;;;33.99;42.96
36284;BME280;56085;48.910;9.478;2022-11-23T11:26:31;96851.06;;;34.76;41.23
36284;BME280;56085;48.910;9.478;2022-11-23T11:29:02;96884.47;;;35.16;39.89
36284;BME280;56085;48.910;9.478;2022-11-23T11:31:46;96809.91;;;34.94;38.42
36284;BME280;56085;48.910;9.478;2022-11-23T11:34:24;96849.69;;;36.23;36.90
36284;BME280;56085;48.910;9.478;2022-11-23T11:36:59;96866.75;;;36.13;35.69
36284;BME280;56085;48.910;9.478;2022-11-23T11:39:44;96803.28;;;36.11;34.55
36284;BME280;56085;48.910;9.478;2022-11-23T11:42:26;96869.75;;;37.62;33.14
36284;BME280;56085;48.910;9.478;2022-11-23T11:44:55;96790.09;;;36.39;32.38
36284;BME280;56085;48.910;9.478;2022-11-23T11:49:49;96770.88;;;35.43;30.45
36284;BME280;56085;48.910;9.478;2022-11-23T11:52:20;96851.72;;;35.40;29.63
36284;BME280;56085;48.910;9.478;2022-11-23T11:54:58;96814.47;;;35.71;28.95
36284;BME280;56085;48.910;9.478;2022-11-23T11:57:37;96808.50;;;35.61;28.10
36284;BME280;56085;48.910;9.478;2022-11-23T12:00:11;96830.59;;;34.51;27.61
36284;BME280;56085;48.910;9.478;2022-11-23T12:05:42;96790.44;;;36.66;26.51
36284;BME280;56085;48.910;9.478;2022-11-23T12:08:32;96760.56;;;35.04;25.78
36284;BME280;56085;48.910;9.478;2022-11-23T12:11:00;96823.91;;;35.06;25.44
36284;BME280;56085;48.910;9.478;2022-11-23T12:13:33;96748.09;;;34.72;24.77
36284;BME280;56085;48.910;9.478;2022-11-23T12:25:05;96777.13;;;34.61;23.09
36284;BME280;56085;48.910;9.478;2022-11-23T12:30:13;96767.59;;;36.92;22.58
36284;BME280;56085;48.910;9.478;2022-11-23T12:44:11;96723.31;;;36.33;20.27
36284;BME280;56085;48.910;9.478;2022-11-23T12:49:37;96732.13;;;34.56;19.60
36284;BME280;56085;48.910;9.478;2022-11-23T12:52:21;96752.31;;;34.71;19.37
36284;BME280;56085;48.910;9.478;2022-11-23T12:54:58;96758.97;;;34.66;18.81
36284;BME280;56085;48.910;9.478;2022-11-23T12:57:34;96756.22;;;35.18;18.89
36284;BME280;56085;48.910;9.478;2022-11-23T13:00:13;96720.22;;;35.17;18.38
36284;BME280;56085;48.910;9.478;2022-11-23T13:13:52;96718.66;;;34.43;17.77
36284;BME280;56085;48.910;9.478;2022-11-23T13:16:34;96740.41;;;34.96;17.62
36284;BME280;56085;48.910;9.478;2022-11-23T13:22:05;96716.34;;;34.41;17.19
36284;BME280;56085;48.910;9.478;2022-11-23T13:24:59;96725.66;;;33.71;17.24
36284;BME280;56085;48.910;9.478;2022-11-23T13:40:28;96727.84;;;34.20;16.47
36284;BME280;56085;48.910;9.478;2022-11-23T13:45:35;96698.94;;;34.39;16.28
36284;BME280;56085;48.910;9.478;2022-11-23T13:48:13;96702.06;;;34.49;16.40
36284;BME280;56085;48.910;9.478;2022-11-23T13:53:38;96715.31;;;32.45;15.81
36284;BME280;56085;48.910;9.478;2022-11-23T13:56:34;96681.09;;;31.80;16.02
36284;BME280;56085;48.910;9.478;2022-11-23T13:59:26;96705.50;;;32.27;16.01
36284;BME280;56085;48.910;9.478;2022-11-23T14:04:34;96694.72;;;32.87;16.09
36284;BME280;56085;48.910;9.478;2022-11-23T14:07:04;96694.72;;;32.74;15.63
36284;BME280;56085;48.910;9.478;2022-11-23T14:09:44;96692.41;;;33.33;16.00
36284;BME280;56085;48.910;9.478;2022-11-23T14:12:22;96663.59;;;33.52;15.91
36284;BME280;56085;48.910;9.478;2022-11-23T14:15:24;96680.88;;;32.78;15.43
36284;BME280;56085;48.910;9.478;2022-11-23T14:18:22;96662.94;;;32.37;15.40
36284;BME280;56085;48.910;9.478;2022-11-23T14:31:36;96658.69;;;20.28;16.77
36284;BME280;56085;48.910;9.478;2022-11-23T14:34:31;96641.41;;;18.76;17.02
36284;BME280;56085;48.910;9.478;2022-11-23T14:40:40;96654.66;;;16.02;17.80
36284;BME280;56085;48.910;9.478;2022-11-23T14:43:12;96664.75;;;15.63;17.93
36284;BME280;56085;48.910;9.478;2022-11-23T14:45:43;96676.75;;;15.07;18.41
36284;BME280;56085;48.910;9.478;2022-11-23T14:48:30;96661.25;;;14.25;19.01
36284;BME280;56085;48.910;9.478;2022-11-23T14:50:58;96666.84;;;13.78;18.90
36284;BME280;56085;48.910;9.478;2022-11-23T14:53:27;96669.78;;;13.43;19.39
36284;BME280;56085;48.910;9.478;2022-11-23T14:55:54;96674.28;;;13.03;19.63
36284;BME280;56085;48.910;9.478;2022-11-23T14:58:20;96669.06;;;12.43;20.04
36284;BME280;56085;48.910;9.478;2022-11-23T15:00:50;96665.22;;;11.95;20.37
36284;BME280;56085;48.910;9.478;2022-11-23T15:03:19;96660.28;;;11.68;20.79
36284;BME280;56085;48.910;9.478;2022-11-23T15:05:52;96653.84;;;11.30;20.68